KEXX

Davidson County Airport

Lexington, North Carolina, USA
METAR KEXX 151940Z AUTO 22010KT 10SM BKN075 17/08 A2979 RMK AO2 T01680080
Observed Flight Rules
Feb-15 @ 19:40 UTC (13 minutes ago) Visual Flight Rules
Wind Visibility Clouds
220° at 10 knots 10 miles
  • Broken at 7,500' AGL
Temperatures Readings
Current 17°C / 63°F
Dewpoint 8°C / 46°F
Humidity 56%
Altimeter 29.79" Hg
Pressure 1008.82 hPa
Elevation 223
METAR KEXX 151940Z AUTO 22010KT 10SM BKN075 17/08 A2979 RMK AO2 T01680080
Observed Flight Rules
Feb-15 @ 19:40 UTC
(13 minutes ago)
VFR
Wind Visibility
220° at 10 knots 10 miles
Clouds
  • Broken at 7,500' AGL
Temperature Dewpoint
17°C / 63°F 8°C / 46°F
Humidity Altimeter Pressure
56% 29.79" Hg 1008.82 hPa